Time;durP1;ratioP1;P1;durP2;ratioP2;P2;SDS_P1;SDS_P2;PMS_P1;PMS_P2;Temp;Humidity;BMP_temperature;BMP_pressure;BME280_temperature;BME280_humidity;BME280_pressure;Samples;Min_cycle;Max_cycle;Signal;HPM_P1;HPM_P2
2022/09/05 04:49:54;;;;;;;;;3.75;3.75;;;;;18.91;77.53;101459.34;5071149;27;49837;-73
2022/09/05 04:52:29;;;;;;;;;3.75;3.75;;;;;19.18;77.03;101480.56;5080302;27;49510;-71
2022/09/05 04:55:09;;;;;;;;;7.75;6.75;;;;;19.32;76.48;101477.88;5080719;28;49996;-74
2022/09/05 04:57:47;;;;;;;;;7.25;7.25;;;;;19.34;76.08;101468.09;5088716;27;50620;-72
2022/09/05 05:00:14;;;;;;;;;8.25;6.50;;;;;19.55;75.99;101480.44;5077798;27;49917;-79
2022/09/05 05:02:45;;;;;;;;;7.00;7.00;;;;;19.64;75.33;101485.75;5076500;27;49681;-75
2022/09/05 05:05:30;;;;;;;;;6.25;5.00;;;;;19.67;74.68;101473.28;5084702;28;49457;-77
2022/09/05 05:08:01;;;;;;;;;6.00;4.75;;;;;19.85;74.76;101485.63;5069402;28;51868;-77
2022/09/05 05:10:44;;;;;;;;;6.00;6.00;;;;;19.63;74.88;101450.25;5082225;27;49431;-72
2022/09/05 05:13:17;;;;;;;;;9.25;7.50;;;;;19.33;74.48;101399.78;5063973;28;49545;-77
2022/09/05 05:15:50;;;;;;;;;8.75;6.50;;;;;19.22;74.16;101367.00;5075444;28;49634;-75
2022/09/05 05:18:32;;;;;;;;;7.00;6.75;;;;;19.96;74.06;101481.13;5078227;28;49786;-69
2022/09/05 05:21:09;;;;;;;;;6.00;6.00;;;;;20.08;73.95;101485.50;5067619;28;49877;-74
2022/09/05 05:23:49;;;;;;;;;6.00;5.75;;;;;19.58;73.75;101392.56;5072298;28;49377;-70
2022/09/05 05:26:46;;;;;;;;;5.00;5.00;;;;;20.20;73.32;101496.06;5066544;27;49812;-71
2022/09/05 05:29:22;;;;;;;;;7.00;7.00;;;;;20.17;73.33;101480.09;5079556;27;50451;-69
2022/09/05 16:14:32;;;;;;;;;5.75;5.00;;;;;29.47;38.14;101132.56;5099631;27;1358244;-78
2022/09/05 16:17:04;;;;;;;;;5.25;5.25;;;;;29.60;37.79;101128.28;5111155;27;49746;-75
2022/09/05 16:19:54;;;;;;;;;4.75;4.75;;;;;29.61;37.75;101106.56;5122440;27;50015;-76
2022/09/05 16:22:30;;;;;;;;;6.00;5.00;;;;;29.72;38.10;101115.94;5112150;27;49691;-75
2022/09/05 16:25:03;;;;;;;;;9.00;4.75;;;;;29.68;37.84;101096.28;5108618;27;49789;-74
2022/09/05 16:27:43;;;;;;;;;7.00;4.75;;;;;30.02;37.91;101122.41;5108828;27;49685;-80
2022/09/05 16:30:09;;;;;;;;;4.25;3.75;;;;;30.05;37.41;101111.41;5104953;27;49560;-73
2022/09/05 16:32:39;;;;;;;;;7.00;5.25;;;;;30.00;37.32;101099.94;5128596;27;50331;-73
2022/09/05 16:35:16;;;;;;;;;4.00;4.00;;;;;30.03;37.36;101098.94;5128508;27;49692;-75
2022/09/05 16:37:54;;;;;;;;;4.50;4.50;;;;;29.87;37.57;101077.22;5130742;27;50001;-77
2022/09/05 16:40:22;;;;;;;;;7.75;5.50;;;;;30.03;37.77;101109.75;5128594;27;49610;-75
2022/09/05 16:43:01;;;;;;;;;7.50;4.00;;;;;29.52;38.18;101027.72;5128198;27;49962;-83
2022/09/05 16:45:29;;;;;;;;;5.50;5.25;;;;;29.91;38.04;101095.03;5109690;27;49737;-77
2022/09/05 16:48:12;;;;;;;;;5.50;5.50;;;;;29.76;38.27;101069.69;5128083;27;49844;-75
2022/09/05 16:50:44;;;;;;;;;5.00;5.00;;;;;29.75;38.65;101089.59;5128801;27;49595;-76
2022/09/05 16:53:27;;;;;;;;;3.75;3.75;;;;;29.64;38.97;101092.88;5109378;27;51116;-69
2022/09/05 16:55:58;;;;;;;;;4.00;4.00;;;;;29.47;39.33;101082.03;5127586;27;49634;-70
2022/09/05 16:58:32;;;;;;;;;4.00;4.00;;;;;29.40;39.86;101098.66;5111734;27;49754;-66
2022/09/05 17:01:34;;;;;;;;;7.50;6.50;;;;;29.39;42.00;101145.59;5111375;27;49919;-74
2022/09/05 17:04:21;;;;;;;;;6.25;6.25;;;;;29.29;43.57;101174.94;5126013;27;49702;-67
2022/09/05 17:07:02;;;;;;;;;5.00;5.00;;;;;29.18;45.53;101191.72;5131020;27;50044;-70
2022/09/05 17:09:40;;;;;;;;;4.75;4.75;;;;;28.85;48.18;101159.06;5131793;27;49681;-71
2022/09/05 17:12:11;;;;;;;;;4.00;4.00;;;;;28.55;49.43;101150.63;5124536;27;49786;-69
2022/09/05 17:14:51;;;;;;;;;5.50;4.75;;;;;27.91;51.69;101127.50;5128535;27;49658;-68
2022/09/05 17:17:21;;;;;;;;;5.25;4.00;;;;;27.70;51.99;101168.00;5129980;27;49607;-76
2022/09/05 17:19:50;;;;;;;;;4.25;3.75;;;;;27.45;51.68;101198.72;5129364;27;50001;-71
2022/09/05 17:22:19;;;;;;;;;4.50;4.50;;;;;27.13;51.73;101208.16;5134253;27;50112;-69
2022/09/05 17:24:51;;;;;;;;;4.50;4.50;;;;;26.91;52.20;101210.78;5129141;27;51174;-69
2022/09/05 17:27:23;;;;;;;;;0.25;0.25;;;;;26.70;52.02;101136.22;5114393;27;49998;-76
2022/09/05 17:29:51;;;;;;;;;4.50;4.50;;;;;26.49;52.07;101172.97;5123391;27;49757;-72
2022/09/05 17:32:22;;;;;;;;;4.75;4.25;;;;;26.36;52.98;101179.72;5111404;27;49514;-73
2022/09/05 17:35:07;;;;;;;;;5.75;4.75;;;;;25.89;53.80;101161.72;5124144;27;49801;-74
2022/09/05 17:37:53;;;;;;;;;5.75;5.75;;;;;25.75;55.80;101181.97;5101133;27;49801;-69
2022/09/05 17:40:58;;;;;;;;;8.00;4.50;;;;;25.34;62.78;101163.63;5122090;27;49788;-69
2022/09/05 17:43:37;;;;;;;;;6.50;6.50;;;;;24.73;68.04;101144.13;5063002;27;50063;-69
2022/09/05 17:46:15;;;;;;;;;7.50;6.50;;;;;24.43;69.96;101137.03;5114013;27;49782;-72
2022/09/05 17:48:46;;;;;;;;;5.50;5.50;;;;;24.54;77.43;101200.19;5115326;27;49757;-69
2022/09/05 17:51:36;;;;;;;;;8.00;7.00;;;;;24.14;77.29;101140.53;5113697;27;49803;-70
2022/09/05 17:54:03;;;;;;;;;6.00;6.00;;;;;24.69;78.13;101281.16;5108702;27;49921;-70
2022/09/05 17:56:31;;;;;;;;;7.00;6.25;;;;;24.75;72.63;101358.84;5115797;27;50582;-79
2022/09/05 17:59:21;;;;;;;;;5.00;5.00;;;;;24.55;70.46;101360.28;5127076;27;49907;-77
2022/09/05 18:02:02;;;;;;;;;0.75;0.75;;;;;23.87;71.68;101338.81;5114089;27;50525;-75
2022/09/05 18:04:39;;;;;;;;;0.25;0.00;;;;;23.39;71.60;101332.81;5127016;27;49771;-75
2022/09/05 18:07:33;;;;;;;;;1.50;1.00;;;;;23.16;73.09;101335.09;5130710;27;50367;-79
2022/09/05 18:10:01;;;;;;;;;1.00;0.00;;;;;22.36;74.88;101212.78;5109630;27;49824;-78
2022/09/05 18:12:31;;;;;;;;;0.00;0.00;;;;;22.56;76.32;101297.06;5129801;27;49797;-74
2022/09/05 18:14:58;;;;;;;;;1.25;1.25;;;;;22.33;76.98;101295.75;5131359;27;49410;-75
2022/09/05 18:17:46;;;;;;;;;1.00;1.00;;;;;22.04;78.02;101286.47;5124155;27;49959;-78
2022/09/05 18:20:18;;;;;;;;;2.75;2.75;;;;;21.85;77.84;101280.56;5100868;27;49266;-74
2022/09/05 18:22:47;;;;;;;;;4.00;4.00;;;;;21.75;79.13;101291.44;5105933;27;49774;-73
2022/09/05 18:25:18;;;;;;;;;6.00;3.00;;;;;21.67;80.07;101279.06;5107862;27;49691;-87
2022/09/05 18:28:09;;;;;;;;;5.00;3.00;;;;;21.66;80.98;101274.63;5101283;27;50430;-77
2022/09/05 18:30:35;;;;;;;;;3.25;2.75;;;;;21.12;81.18;101138.41;5106531;27;49344;-72
2022/09/05 18:33:00;;;;;;;;;4.75;4.00;;;;;21.70;80.94;101217.56;5103613;27;49513;-80
2022/09/05 18:35:35;;;;;;;;;6.25;5.75;;;;;21.68;80.33;101208.69;5096128;27;49812;-70
2022/09/05 18:38:02;;;;;;;;;4.25;4.25;;;;;21.93;80.47;101233.19;5092342;27;49880;-70
2022/09/05 18:40:52;;;;;;;;;6.25;4.50;;;;;21.58;80.48;101177.72;5093075;27;49787;-70
2022/09/05 18:44:00;;;;;;;;;5.50;5.50;;;;;21.98;80.29;101260.69;5108385;27;49803;-71
2022/09/05 18:46:30;;;;;;;;;6.25;6.25;;;;;22.01;80.31;101249.09;5060612;27;50057;-70
2022/09/05 18:49:08;;;;;;;;;4.75;4.00;;;;;22.12;80.15;101265.84;5123989;27;49808;-70
2022/09/05 18:51:41;;;;;;;;;4.75;4.75;;;;;22.13;78.63;101261.38;5118359;27;49813;-70
2022/09/05 18:54:11;;;;;;;;;7.50;7.50;;;;;21.97;78.40;101220.63;5111820;27;49784;-71
2022/09/05 18:56:44;;;;;;;;;5.00;4.25;;;;;22.15;78.87;101249.72;5113988;27;50061;-69
2022/09/05 18:59:22;;;;;;;;;7.00;6.00;;;;;22.20;78.64;101237.16;5111562;27;50038;-70
2022/09/05 19:02:09;;;;;;;;;6.25;6.25;;;;;21.78;78.81;101184.47;5111845;27;49694;-70
2022/09/05 19:04:52;;;;;;;;;8.00;8.00;;;;;21.99;78.60;101227.72;5110660;27;49906;-71
2022/09/05 19:07:53;;;;;;;;;7.75;6.00;;;;;21.95;78.18;101225.13;5108134;27;49898;-70
2022/09/05 19:10:27;;;;;;;;;6.25;5.00;;;;;21.84;77.57;101198.63;5011502;28;50632;-71
2022/09/05 19:13:00;;;;;;;;;6.00;6.00;;;;;21.76;77.45;101203.22;5100184;27;49845;-71
2022/09/05 19:15:32;;;;;;;;;6.00;4.50;;;;;21.78;77.54;101221.88;5127284;27;49397;-73
2022/09/05 19:17:59;;;;;;;;;4.00;4.00;;;;;21.88;77.09;101253.75;5118531;27;49814;-68
2022/09/05 19:20:26;;;;;;;;;6.25;6.25;;;;;21.88;77.22;101252.88;5113675;27;50730;-68
2022/09/05 19:22:58;;;;;;;;;8.75;7.75;;;;;21.61;77.42;101212.38;5111471;27;49813;-70
2022/09/05 19:25:36;;;;;;;;;6.25;4.00;;;;;21.59;77.36;101213.31;5110037;27;49751;-69
2022/09/05 19:28:24;;;;;;;;;5.00;4.00;;;;;21.81;76.96;101252.13;5110288;27;50148;-69
2022/09/05 19:30:57;;;;;;;;;5.50;5.50;;;;;21.85;78.29;101272.53;5092491;27;50795;-69
2022/09/05 19:33:25;;;;;;;;;5.75;5.75;;;;;21.92;78.40;101274.19;5108543;27;50136;-69
2022/09/05 19:36:03;;;;;;;;;6.00;6.00;;;;;21.84;76.40;101259.22;5108704;27;49780;-68
2022/09/05 19:38:34;;;;;;;;;7.25;7.25;;;;;21.92;77.12;101265.31;5112244;27;49660;-67
2022/09/05 19:41:00;;;;;;;;;7.00;7.00;;;;;21.84;77.50;101245.84;5109045;27;49930;-68
2022/09/05 19:43:25;;;;;;;;;6.25;6.25;;;;;21.83;77.07;101247.63;5090516;27;49719;-71
2022/09/05 19:46:05;;;;;;;;;7.75;7.00;;;;;21.91;76.83;101266.22;5091463;27;49819;-71
2022/09/05 19:48:31;;;;;;;;;7.75;6.25;;;;;21.83;75.99;101266.34;5092128;27;49581;-70
2022/09/05 19:51:07;;;;;;;;;7.75;7.00;;;;;21.89;76.98;101284.03;5091572;27;49877;-69
2022/09/05 19:53:33;;;;;;;;;9.00;9.00;;;;;21.65;77.44;101239.94;5092184;27;49691;-68
2022/09/05 19:56:02;;;;;;;;;10.50;8.50;;;;;21.86;77.40;101276.97;5091988;27;49838;-69
2022/09/05 19:58:28;;;;;;;;;9.00;9.00;;;;;21.70;77.09;101238.94;5079786;27;50080;-68
2022/09/05 20:01:03;;;;;;;;;8.00;7.25;;;;;21.86;77.16;101268.06;5091780;27;50700;-69
2022/09/05 20:03:31;;;;;;;;;6.75;6.75;;;;;21.86;77.96;101268.94;5091778;27;49839;-69
2022/09/05 20:05:57;;;;;;;;;6.75;6.00;;;;;21.63;77.18;101247.97;5091772;27;49555;-69
2022/09/05 20:08:33;;;;;;;;;7.25;6.50;;;;;21.67;77.85;101252.34;5092135;27;50156;-70
2022/09/05 20:11:03;;;;;;;;;8.00;8.00;;;;;21.64;77.30;101270.25;5105525;27;51009;-69
2022/09/05 20:13:29;;;;;;;;;9.00;8.25;;;;;21.51;77.92;101255.31;5111694;27;49636;-69
2022/09/05 20:15:54;;;;;;;;;8.75;7.00;;;;;21.68;78.38;101285.31;5111753;27;49678;-69
2022/09/05 20:18:41;;;;;;;;;8.25;8.25;;;;;21.52;78.26;101268.66;5112395;27;49685;-69
2022/09/05 20:21:08;;;;;;;;;9.00;9.00;;;;;21.66;78.90;101284.44;5107342;27;50889;-69
2022/09/05 20:23:38;;;;;;;;;9.50;9.50;;;;;21.33;78.75;101237.81;5111839;27;49844;-69
2022/09/05 20:26:06;;;;;;;;;11.50;9.75;;;;;21.44;79.12;101254.53;5093298;27;49894;-69
2022/09/05 20:28:36;;;;;;;;;7.50;7.50;;;;;21.53;79.26;101277.56;5096275;27;49719;-68
2022/09/05 20:31:06;;;;;;;;;10.00;7.50;;;;;21.32;79.75;101236.03;5114845;27;50681;-72
2022/09/05 20:33:47;;;;;;;;;10.75;9.50;;;;;21.37;79.30;101259.09;5111513;27;49767;-69
2022/09/05 20:36:17;;;;;;;;;10.25;9.25;;;;;21.35;79.55;101268.91;5111486;27;50045;-69
2022/09/05 20:38:51;;;;;;;;;10.25;9.00;;;;;21.33;80.23;101261.84;5111699;27;49845;-68
2022/09/05 20:41:22;;;;;;;;;10.50;10.25;;;;;21.33;80.93;101259.19;5117311;27;49578;-70
2022/09/05 20:43:57;;;;;;;;;8.25;8.25;;;;;21.26;80.77;101261.03;5104865;27;49904;-70
2022/09/05 20:46:30;;;;;;;;;13.00;10.00;;;;;21.47;81.14;101272.28;5091314;27;49879;-69
2022/09/05 20:48:56;;;;;;;;;11.00;10.75;;;;;21.38;80.96;101262.63;5092202;27;50068;-69
2022/09/05 20:51:22;;;;;;;;;12.00;11.00;;;;;21.36;81.45;101260.00;5090657;27;49849;-69
2022/09/05 20:53:48;;;;;;;;;11.25;11.25;;;;;21.44;82.06;101267.91;5091077;27;49881;-69
2022/09/05 20:56:21;;;;;;;;;10.25;9.25;;;;;21.33;81.51;101244.03;5091488;27;49810;-69
2022/09/05 20:58:49;;;;;;;;;12.75;11.25;;;;;21.33;81.82;101245.81;5091302;27;50003;-69
2022/09/05 21:01:18;;;;;;;;;9.50;9.50;;;;;21.34;82.07;101248.47;5094722;27;49663;-69
2022/09/05 21:04:02;;;;;;;;;13.75;11.75;;;;;21.11;81.92;101224.72;5094518;27;49967;-70
2022/09/05 21:06:31;;;;;;;;;13.00;12.25;;;;;21.25;82.60;101245.91;5094519;27;49802;-71
2022/09/05 21:09:14;;;;;;;;;14.50;12.00;;;;;21.22;82.82;101261.94;5094588;27;49770;-71
2022/09/05 21:11:41;;;;;;;;;16.75;15.50;;;;;21.12;82.79;101249.63;5094282;27;49959;-72
2022/09/05 21:14:08;;;;;;;;;12.00;12.00;;;;;20.46;83.31;101129.63;5094321;27;49885;-70
2022/09/05 21:16:41;;;;;;;;;15.75;13.25;;;;;21.11;83.06;101229.19;5094686;27;49997;-68
2022/09/05 21:19:21;;;;;;;;;13.50;13.25;;;;;21.08;83.19;101221.25;5114828;27;49808;-70
2022/09/05 21:22:08;;;;;;;;;14.00;12.25;;;;;21.25;83.42;101248.56;5114369;27;49981;-70
2022/09/05 21:24:34;;;;;;;;;12.00;12.00;;;;;21.21;83.30;101238.81;5114934;27;49779;-68
2022/09/05 21:27:34;;;;;;;;;16.00;13.25;;;;;21.14;84.05;101238.06;5114368;27;49740;-69
2022/09/05 21:30:26;;;;;;;;;14.00;13.00;;;;;21.13;83.87;101238.97;5010578;28;49882;-69
2022/09/05 21:32:54;;;;;;;;;15.25;13.25;;;;;21.11;84.07;101230.06;5110258;27;49981;-69
2022/09/05 21:35:19;;;;;;;;;16.25;15.75;;;;;21.03;83.98;101223.97;5116911;27;49694;-68
2022/09/05 21:37:46;;;;;;;;;13.00;12.00;;;;;21.09;83.94;101237.22;5114455;27;50016;-73
2022/09/05 21:40:12;;;;;;;;;14.00;13.75;;;;;21.02;83.89;101224.00;5114610;27;49543;-74
2022/09/05 21:42:38;;;;;;;;;14.75;14.00;;;;;20.90;84.88;101221.50;5114211;27;50793;-69
2022/09/05 21:45:04;;;;;;;;;15.00;13.50;;;;;20.37;84.33;101109.31;5114092;27;49736;-69
2022/09/05 21:47:29;;;;;;;;;17.25;14.00;;;;;21.05;84.29;101237.31;5113929;27;49714;-68
2022/09/05 21:49:54;;;;;;;;;18.50;15.00;;;;;20.64;84.38;101174.72;5117267;27;49839;-68
2022/09/05 21:52:20;;;;;;;;;17.00;16.25;;;;;20.87;84.86;101211.78;5113714;27;50701;-69
2022/09/05 21:54:52;;;;;;;;;17.00;16.50;;;;;20.86;85.26;101231.34;5113680;27;49855;-70
2022/09/05 21:57:25;;;;;;;;;14.00;14.00;;;;;20.91;85.77;101236.63;5113827;27;49749;-68
2022/09/05 21:59:55;;;;;;;;;15.25;13.00;;;;;20.78;86.42;101220.78;5113598;27;50158;-69
2022/09/05 22:02:22;;;;;;;;;14.25;12.75;;;;;20.93;85.99;101230.34;5113384;27;50842;-68
2022/09/05 22:04:48;;;;;;;;;14.50;14.50;;;;;20.90;86.24;101219.72;5116550;27;49964;-69
2022/09/05 22:07:17;;;;;;;;;15.25;15.00;;;;;20.80;85.83;101194.06;5113549;27;49964;-70
2022/09/05 22:09:43;;;;;;;;;15.75;14.25;;;;;20.93;85.65;101217.00;5113842;27;50097;-68
2022/09/05 22:12:09;;;;;;;;;12.75;12.75;;;;;20.52;85.60;101146.44;5113313;27;49685;-68
2022/09/05 22:14:35;;;;;;;;;10.75;10.50;;;;;20.88;85.54;101205.53;5113182;27;49742;-68
2022/09/05 22:17:02;;;;;;;;;14.00;13.50;;;;;20.92;85.67;101215.25;5113333;27;49758;-68
2022/09/05 22:19:28;;;;;;;;;15.00;14.75;;;;;20.86;85.36;101215.34;5113577;27;49655;-69
2022/09/05 22:21:58;;;;;;;;;15.50;14.00;;;;;20.95;84.98;101225.88;5112905;27;49716;-68
2022/09/05 22:24:26;;;;;;;;;13.00;13.00;;;;;20.60;84.80;101178.34;5113220;27;49703;-68
2022/09/05 22:26:54;;;;;;;;;17.25;15.25;;;;;20.79;85.06;101219.00;5115698;27;49833;-68
2022/09/05 22:29:23;;;;;;;;;10.75;10.75;;;;;20.84;85.54;101241.16;5113411;27;49781;-69
2022/09/05 22:31:51;;;;;;;;;15.00;13.50;;;;;20.72;85.55;101223.53;5112954;27;49768;-68
2022/09/05 22:34:16;;;;;;;;;13.25;13.25;;;;;20.84;85.54;101235.81;5112901;27;49751;-68
2022/09/05 22:36:42;;;;;;;;;15.25;13.00;;;;;20.89;85.64;101254.44;5112878;27;49978;-69
2022/09/05 22:39:08;;;;;;;;;14.00;14.00;;;;;20.41;85.28;101163.47;5113225;27;49655;-68
2022/09/05 22:41:34;;;;;;;;;14.75;13.75;;;;;20.83;85.51;101245.59;5112522;27;50093;-68
2022/09/05 22:44:00;;;;;;;;;14.75;13.50;;;;;20.83;85.45;101252.72;5115586;27;49901;-69
2022/09/05 22:46:25;;;;;;;;;14.25;13.75;;;;;20.86;85.25;101247.38;5094467;27;49753;-68
2022/09/05 22:48:50;;;;;;;;;15.00;13.00;;;;;20.67;84.96;101209.38;5112992;27;49587;-68
2022/09/05 22:51:16;;;;;;;;;15.75;14.25;;;;;20.85;85.17;101233.16;5093779;27;52494;-68
2022/09/05 22:53:42;;;;;;;;;14.25;13.25;;;;;20.45;85.05;101163.44;5112750;27;49827;-71
2022/09/05 22:56:09;;;;;;;;;15.50;13.25;;;;;20.79;84.47;101224.34;5112628;27;49784;-68
2022/09/05 22:58:43;;;;;;;;;16.25;13.25;;;;;20.66;84.41;101193.41;5112860;27;49684;-69
2022/09/05 23:01:10;;;;;;;;;14.00;14.00;;;;;20.97;84.68;101248.09;5107517;27;49827;-68
2022/09/05 23:03:35;;;;;;;;;13.75;11.00;;;;;20.50;84.91;101176.72;5112933;27;49740;-69
2022/09/05 23:06:08;;;;;;;;;15.25;14.50;;;;;20.47;84.67;101174.97;5112883;27;49933;-69
2022/09/05 23:08:34;;;;;;;;;14.50;13.75;;;;;20.56;84.34;101192.66;5113077;27;49744;-69
2022/09/05 23:11:18;;;;;;;;;15.50;14.25;;;;;20.89;84.60;101251.78;5112700;27;49813;-68
2022/09/05 23:13:43;;;;;;;;;13.50;13.00;;;;;20.80;83.82;101247.44;5112619;27;49836;-69
2022/09/05 23:16:09;;;;;;;;;15.50;14.25;;;;;20.50;83.32;101214.94;5112606;27;49694;-69
2022/09/05 23:18:34;;;;;;;;;15.25;14.00;;;;;20.57;83.03;101227.31;5112956;27;49791;-68
2022/09/05 23:21:05;;;;;;;;;11.25;11.00;;;;;20.83;82.91;101264.28;5112293;27;50902;-68
2022/09/05 23:23:31;;;;;;;;;10.75;9.75;;;;;20.76;82.97;101245.72;5112220;27;49833;-68
2022/09/05 23:26:00;;;;;;;;;9.25;9.25;;;;;20.85;82.78;101266.97;5112666;27;49797;-68
2022/09/05 23:28:26;;;;;;;;;8.00;8.00;;;;;20.78;82.63;101252.81;5112985;27;49915;-69
2022/09/05 23:30:51;;;;;;;;;10.50;10.50;;;;;20.76;82.77;101243.06;5112421;27;49786;-68
2022/09/05 23:33:17;;;;;;;;;9.75;8.00;;;;;20.72;82.40;101247.53;5112509;27;49869;-70
2022/09/05 23:35:42;;;;;;;;;6.25;5.50;;;;;20.72;82.96;101250.22;5112133;27;49894;-68
2022/09/05 23:38:10;;;;;;;;;8.75;8.75;;;;;20.53;82.22;101230.00;5112676;27;49654;-68
2022/09/05 23:40:35;;;;;;;;;9.00;8.00;;;;;20.68;82.32;101264.50;5112347;27;50837;-68
2022/09/05 23:43:00;;;;;;;;;8.75;8.75;;;;;20.55;81.41;101234.41;5112350;27;49682;-68
2022/09/05 23:45:27;;;;;;;;;10.00;9.00;;;;;20.62;81.64;101259.22;5112482;27;49611;-68
2022/09/05 23:47:53;;;;;;;;;8.00;7.25;;;;;20.73;80.70;101275.97;5112485;27;49773;-68
2022/09/05 23:50:18;;;;;;;;;13.75;10.75;;;;;20.62;80.98;101264.56;5093484;27;51784;-69
2022/09/05 23:52:45;;;;;;;;;8.75;8.50;;;;;20.64;81.40;101281.44;5112059;27;49867;-68
2022/09/05 23:55:13;;;;;;;;;9.00;9.00;;;;;20.55;81.74;101266.41;5112287;27;49764;-68
2022/09/05 23:57:39;;;;;;;;;6.75;6.75;;;;;20.45;81.14;101262.09;5112474;27;50215;-68
